sensor_id;sensor_type;location;lat;lon;timestamp;P1;durP1;ratioP1;P2;durP2;ratioP2
13443;SDS011;6794;59.218;18.218;2023-07-31T00:00:30;5.83;;;5.23;;
13443;SDS011;6794;59.218;18.218;2023-07-31T00:02:56;5.77;;;5.27;;
13443;SDS011;6794;59.218;18.218;2023-07-31T00:05:22;5.53;;;4.93;;
13443;SDS011;6794;59.218;18.218;2023-07-31T00:07:48;8.37;;;5.50;;
13443;SDS011;6794;59.218;18.218;2023-07-31T00:10:14;5.40;;;4.90;;
13443;SDS011;6794;59.218;18.218;2023-07-31T00:12:42;5.27;;;4.80;;
13443;SDS011;6794;59.218;18.218;2023-07-31T00:15:08;5.00;;;4.53;;
13443;SDS011;6794;59.218;18.218;2023-07-31T00:17:34;7.10;;;5.17;;
13443;SDS011;6794;59.218;18.218;2023-07-31T00:20:00;5.47;;;4.97;;
13443;SDS011;6794;59.218;18.218;2023-07-31T00:22:27;5.50;;;4.97;;
13443;SDS011;6794;59.218;18.218;2023-07-31T00:24:53;6.00;;;5.40;;
13443;SDS011;6794;59.218;18.218;2023-07-31T00:27:19;6.80;;;4.97;;
13443;SDS011;6794;59.218;18.218;2023-07-31T00:29:45;5.70;;;5.07;;
13443;SDS011;6794;59.218;18.218;2023-07-31T00:32:11;5.60;;;5.10;;
13443;SDS011;6794;59.218;18.218;2023-07-31T00:34:37;5.80;;;5.20;;
13443;SDS011;6794;59.218;18.218;2023-07-31T00:37:03;6.30;;;5.50;;
13443;SDS011;6794;59.218;18.218;2023-07-31T00:39:30;5.57;;;5.07;;
13443;SDS011;6794;59.218;18.218;2023-07-31T00:41:56;5.50;;;5.00;;
13443;SDS011;6794;59.218;18.218;2023-07-31T00:44:22;5.43;;;4.93;;
13443;SDS011;6794;59.218;18.218;2023-07-31T00:46:48;5.10;;;4.60;;
13443;SDS011;6794;59.218;18.218;2023-07-31T00:49:14;6.30;;;5.70;;
13443;SDS011;6794;59.218;18.218;2023-07-31T00:51:41;5.90;;;5.30;;
13443;SDS011;6794;59.218;18.218;2023-07-31T00:54:07;6.90;;;5.50;;
13443;SDS011;6794;59.218;18.218;2023-07-31T00:56:33;7.57;;;5.60;;
13443;SDS011;6794;59.218;18.218;2023-07-31T00:58:59;5.87;;;5.37;;
13443;SDS011;6794;59.218;18.218;2023-07-31T01:01:25;8.27;;;5.53;;
13443;SDS011;6794;59.218;18.218;2023-07-31T01:03:51;5.67;;;5.10;;
13443;SDS011;6794;59.218;18.218;2023-07-31T01:08:58;6.27;;;4.90;;
13443;SDS011;6794;59.218;18.218;2023-07-31T01:11:28;6.57;;;5.83;;
13443;SDS011;6794;59.218;18.218;2023-07-31T01:13:55;6.30;;;5.70;;
13443;SDS011;6794;59.218;18.218;2023-07-31T01:16:21;6.87;;;6.00;;
13443;SDS011;6794;59.218;18.218;2023-07-31T01:18:47;6.40;;;5.80;;
13443;SDS011;6794;59.218;18.218;2023-07-31T01:21:21;5.63;;;5.10;;
13443;SDS011;6794;59.218;18.218;2023-07-31T01:24:08;6.33;;;5.73;;
13443;SDS011;6794;59.218;18.218;2023-07-31T01:26:38;6.37;;;4.63;;
13443;SDS011;6794;59.218;18.218;2023-07-31T01:31:30;6.23;;;5.50;;
13443;SDS011;6794;59.218;18.218;2023-07-31T01:33:58;5.33;;;4.63;;
13443;SDS011;6794;59.218;18.218;2023-07-31T01:36:25;7.00;;;5.70;;
13443;SDS011;6794;59.218;18.218;2023-07-31T01:38:51;5.63;;;5.13;;
13443;SDS011;6794;59.218;18.218;2023-07-31T01:41:18;5.80;;;5.07;;
13443;SDS011;6794;59.218;18.218;2023-07-31T01:43:45;6.33;;;5.83;;
13443;SDS011;6794;59.218;18.218;2023-07-31T01:46:11;6.07;;;5.57;;
13443;SDS011;6794;59.218;18.218;2023-07-31T01:48:37;6.10;;;5.60;;
13443;SDS011;6794;59.218;18.218;2023-07-31T01:51:03;6.20;;;5.67;;
13443;SDS011;6794;59.218;18.218;2023-07-31T01:53:30;5.50;;;5.00;;
13443;SDS011;6794;59.218;18.218;2023-07-31T01:55:56;7.30;;;6.20;;
13443;SDS011;6794;59.218;18.218;2023-07-31T01:58:22;5.70;;;5.20;;
13443;SDS011;6794;59.218;18.218;2023-07-31T02:00:48;8.67;;;5.43;;
13443;SDS011;6794;59.218;18.218;2023-07-31T02:03:14;6.10;;;5.50;;
13443;SDS011;6794;59.218;18.218;2023-07-31T02:05:44;5.73;;;5.20;;
13443;SDS011;6794;59.218;18.218;2023-07-31T02:08:10;5.73;;;5.23;;
13443;SDS011;6794;59.218;18.218;2023-07-31T02:10:36;5.97;;;5.40;;
13443;SDS011;6794;59.218;18.218;2023-07-31T02:13:02;6.40;;;5.77;;
13443;SDS011;6794;59.218;18.218;2023-07-31T02:15:32;5.10;;;4.70;;
13443;SDS011;6794;59.218;18.218;2023-07-31T02:17:58;6.00;;;5.40;;
13443;SDS011;6794;59.218;18.218;2023-07-31T02:20:24;5.87;;;5.27;;
13443;SDS011;6794;59.218;18.218;2023-07-31T02:22:50;5.40;;;4.97;;
13443;SDS011;6794;59.218;18.218;2023-07-31T02:25:16;5.80;;;4.87;;
13443;SDS011;6794;59.218;18.218;2023-07-31T02:27:42;5.07;;;4.67;;
13443;SDS011;6794;59.218;18.218;2023-07-31T02:30:08;5.83;;;5.33;;
13443;SDS011;6794;59.218;18.218;2023-07-31T02:32:34;5.90;;;5.40;;
13443;SDS011;6794;59.218;18.218;2023-07-31T02:35:00;6.97;;;5.47;;
13443;SDS011;6794;59.218;18.218;2023-07-31T02:37:26;5.90;;;5.30;;
13443;SDS011;6794;59.218;18.218;2023-07-31T02:39:53;6.43;;;5.20;;
13443;SDS011;6794;59.218;18.218;2023-07-31T02:42:20;5.73;;;5.07;;
13443;SDS011;6794;59.218;18.218;2023-07-31T02:44:46;5.70;;;5.20;;
13443;SDS011;6794;59.218;18.218;2023-07-31T02:47:12;5.70;;;4.90;;
13443;SDS011;6794;59.218;18.218;2023-07-31T02:49:38;7.03;;;5.93;;
13443;SDS011;6794;59.218;18.218;2023-07-31T02:52:04;6.90;;;5.30;;
13443;SDS011;6794;59.218;18.218;2023-07-31T02:54:30;5.40;;;4.97;;
13443;SDS011;6794;59.218;18.218;2023-07-31T02:56:56;5.80;;;5.30;;
13443;SDS011;6794;59.218;18.218;2023-07-31T02:59:22;5.37;;;4.87;;
13443;SDS011;6794;59.218;18.218;2023-07-31T03:01:48;5.80;;;5.20;;
13443;SDS011;6794;59.218;18.218;2023-07-31T03:04:14;6.73;;;5.97;;
13443;SDS011;6794;59.218;18.218;2023-07-31T03:06:40;6.00;;;5.40;;
13443;SDS011;6794;59.218;18.218;2023-07-31T03:09:06;6.47;;;5.60;;
13443;SDS011;6794;59.218;18.218;2023-07-31T03:11:32;6.17;;;5.57;;
13443;SDS011;6794;59.218;18.218;2023-07-31T03:13:58;5.53;;;5.07;;
13443;SDS011;6794;59.218;18.218;2023-07-31T03:16:24;6.20;;;5.63;;
13443;SDS011;6794;59.218;18.218;2023-07-31T03:18:50;6.40;;;5.80;;
13443;SDS011;6794;59.218;18.218;2023-07-31T03:21:16;6.10;;;5.07;;
13443;SDS011;6794;59.218;18.218;2023-07-31T03:23:42;6.20;;;5.70;;
13443;SDS011;6794;59.218;18.218;2023-07-31T03:26:08;6.00;;;5.40;;
13443;SDS011;6794;59.218;18.218;2023-07-31T03:28:34;5.53;;;5.03;;
13443;SDS011;6794;59.218;18.218;2023-07-31T03:31:00;5.77;;;5.27;;
13443;SDS011;6794;59.218;18.218;2023-07-31T03:33:26;5.50;;;5.00;;
13443;SDS011;6794;59.218;18.218;2023-07-31T03:35:53;5.80;;;5.20;;
13443;SDS011;6794;59.218;18.218;2023-07-31T03:38:19;7.00;;;5.03;;
13443;SDS011;6794;59.218;18.218;2023-07-31T03:40:45;6.03;;;5.43;;
13443;SDS011;6794;59.218;18.218;2023-07-31T03:43:11;5.43;;;4.93;;
13443;SDS011;6794;59.218;18.218;2023-07-31T03:45:37;6.83;;;5.90;;
13443;SDS011;6794;59.218;18.218;2023-07-31T03:48:03;5.57;;;5.00;;
13443;SDS011;6794;59.218;18.218;2023-07-31T03:50:29;6.50;;;5.90;;
13443;SDS011;6794;59.218;18.218;2023-07-31T03:52:55;6.57;;;5.87;;
13443;SDS011;6794;59.218;18.218;2023-07-31T03:55:21;6.57;;;5.97;;
13443;SDS011;6794;59.218;18.218;2023-07-31T03:57:48;6.23;;;5.60;;
13443;SDS011;6794;59.218;18.218;2023-07-31T04:00:14;9.47;;;6.13;;
13443;SDS011;6794;59.218;18.218;2023-07-31T04:02:40;6.60;;;5.27;;
13443;SDS011;6794;59.218;18.218;2023-07-31T04:05:06;7.07;;;6.10;;
13443;SDS011;6794;59.218;18.218;2023-07-31T04:07:33;6.67;;;6.03;;
13443;SDS011;6794;59.218;18.218;2023-07-31T04:09:59;6.30;;;5.70;;
13443;SDS011;6794;59.218;18.218;2023-07-31T04:12:26;7.87;;;5.70;;
13443;SDS011;6794;59.218;18.218;2023-07-31T04:14:52;6.73;;;5.97;;
13443;SDS011;6794;59.218;18.218;2023-07-31T04:17:18;6.30;;;5.80;;
13443;SDS011;6794;59.218;18.218;2023-07-31T04:19:44;6.37;;;5.80;;
13443;SDS011;6794;59.218;18.218;2023-07-31T04:22:10;6.50;;;5.90;;
13443;SDS011;6794;59.218;18.218;2023-07-31T04:24:36;7.75;;;6.47;;
13443;SDS011;6794;59.218;18.218;2023-07-31T04:27:02;6.40;;;5.83;;
13443;SDS011;6794;59.218;18.218;2023-07-31T04:29:28;6.00;;;5.50;;
13443;SDS011;6794;59.218;18.218;2023-07-31T04:31:54;5.97;;;5.40;;
13443;SDS011;6794;59.218;18.218;2023-07-31T04:34:20;7.20;;;6.30;;
13443;SDS011;6794;59.218;18.218;2023-07-31T04:36:46;6.33;;;5.57;;
13443;SDS011;6794;59.218;18.218;2023-07-31T04:39:12;6.67;;;5.93;;
13443;SDS011;6794;59.218;18.218;2023-07-31T04:41:38;6.37;;;5.70;;
13443;SDS011;6794;59.218;18.218;2023-07-31T04:44:04;6.33;;;5.73;;
13443;SDS011;6794;59.218;18.218;2023-07-31T04:46:30;7.47;;;6.70;;
13443;SDS011;6794;59.218;18.218;2023-07-31T04:48:56;10.83;;;7.73;;
13443;SDS011;6794;59.218;18.218;2023-07-31T04:51:22;7.37;;;6.67;;
13443;SDS011;6794;59.218;18.218;2023-07-31T04:53:48;10.83;;;7.63;;
13443;SDS011;6794;59.218;18.218;2023-07-31T04:56:15;13.20;;;8.50;;
13443;SDS011;6794;59.218;18.218;2023-07-31T04:58:41;10.73;;;7.70;;
13443;SDS011;6794;59.218;18.218;2023-07-31T05:01:07;9.83;;;7.70;;
13443;SDS011;6794;59.218;18.218;2023-07-31T05:03:33;8.00;;;7.20;;
13443;SDS011;6794;59.218;18.218;2023-07-31T05:05:59;13.40;;;7.77;;
13443;SDS011;6794;59.218;18.218;2023-07-31T05:08:25;8.77;;;7.30;;
13443;SDS011;6794;59.218;18.218;2023-07-31T05:10:51;8.40;;;7.40;;
13443;SDS011;6794;59.218;18.218;2023-07-31T05:13:17;9.10;;;7.47;;
13443;SDS011;6794;59.218;18.218;2023-07-31T05:15:43;8.10;;;7.07;;
13443;SDS011;6794;59.218;18.218;2023-07-31T05:18:09;7.93;;;7.13;;
13443;SDS011;6794;59.218;18.218;2023-07-31T05:20:35;7.17;;;6.47;;
13443;SDS011;6794;59.218;18.218;2023-07-31T05:23:01;7.50;;;6.80;;
13443;SDS011;6794;59.218;18.218;2023-07-31T05:25:27;7.43;;;6.73;;
13443;SDS011;6794;59.218;18.218;2023-07-31T05:27:53;7.20;;;6.50;;
13443;SDS011;6794;59.218;18.218;2023-07-31T05:30:19;7.13;;;6.43;;
13443;SDS011;6794;59.218;18.218;2023-07-31T05:32:46;7.10;;;6.50;;
13443;SDS011;6794;59.218;18.218;2023-07-31T05:35:12;7.80;;;7.10;;
13443;SDS011;6794;59.218;18.218;2023-07-31T05:37:38;7.63;;;6.93;;
13443;SDS011;6794;59.218;18.218;2023-07-31T05:40:04;7.13;;;6.43;;
13443;SDS011;6794;59.218;18.218;2023-07-31T05:42:30;8.03;;;7.23;;
13443;SDS011;6794;59.218;18.218;2023-07-31T05:44:56;8.00;;;7.20;;
13443;SDS011;6794;59.218;18.218;2023-07-31T05:47:22;7.80;;;7.03;;
13443;SDS011;6794;59.218;18.218;2023-07-31T05:49:49;8.37;;;7.57;;
13443;SDS011;6794;59.218;18.218;2023-07-31T05:52:17;8.17;;;7.47;;
13443;SDS011;6794;59.218;18.218;2023-07-31T05:54:43;8.33;;;7.53;;
13443;SDS011;6794;59.218;18.218;2023-07-31T05:57:11;7.37;;;6.63;;
13443;SDS011;6794;59.218;18.218;2023-07-31T05:59:37;7.27;;;6.63;;
13443;SDS011;6794;59.218;18.218;2023-07-31T06:02:03;6.97;;;6.37;;
13443;SDS011;6794;59.218;18.218;2023-07-31T06:04:29;6.00;;;5.50;;
13443;SDS011;6794;59.218;18.218;2023-07-31T06:06:55;6.63;;;6.03;;
13443;SDS011;6794;59.218;18.218;2023-07-31T06:09:21;6.10;;;5.60;;
13443;SDS011;6794;59.218;18.218;2023-07-31T06:11:47;5.83;;;5.23;;
13443;SDS011;6794;59.218;18.218;2023-07-31T06:14:13;5.53;;;5.13;;
13443;SDS011;6794;59.218;18.218;2023-07-31T06:16:39;9.17;;;6.83;;
13443;SDS011;6794;59.218;18.218;2023-07-31T06:19:06;8.07;;;6.97;;
13443;SDS011;6794;59.218;18.218;2023-07-31T06:21:32;7.60;;;6.90;;
13443;SDS011;6794;59.218;18.218;2023-07-31T06:23:58;6.88;;;6.28;;
13443;SDS011;6794;59.218;18.218;2023-07-31T06:26:24;7.07;;;6.07;;
13443;SDS011;6794;59.218;18.218;2023-07-31T06:28:50;5.90;;;5.37;;
13443;SDS011;6794;59.218;18.218;2023-07-31T06:31:16;6.60;;;5.90;;
13443;SDS011;6794;59.218;18.218;2023-07-31T06:33:45;6.23;;;5.60;;
13443;SDS011;6794;59.218;18.218;2023-07-31T06:36:11;6.10;;;4.97;;
13443;SDS011;6794;59.218;18.218;2023-07-31T06:38:37;5.10;;;4.53;;
13443;SDS011;6794;59.218;18.218;2023-07-31T06:41:03;4.90;;;4.50;;
13443;SDS011;6794;59.218;18.218;2023-07-31T06:43:29;4.43;;;4.10;;
13443;SDS011;6794;59.218;18.218;2023-07-31T06:45:55;4.83;;;4.30;;
13443;SDS011;6794;59.218;18.218;2023-07-31T06:48:21;4.90;;;4.37;;
13443;SDS011;6794;59.218;18.218;2023-07-31T06:50:47;4.97;;;3.67;;
13443;SDS011;6794;59.218;18.218;2023-07-31T06:53:13;4.43;;;4.03;;
13443;SDS011;6794;59.218;18.218;2023-07-31T06:55:39;5.80;;;3.70;;
13443;SDS011;6794;59.218;18.218;2023-07-31T06:58:05;4.50;;;3.60;;
13443;SDS011;6794;59.218;18.218;2023-07-31T07:00:31;6.67;;;3.80;;
13443;SDS011;6794;59.218;18.218;2023-07-31T07:02:57;3.40;;;3.10;;
13443;SDS011;6794;59.218;18.218;2023-07-31T07:05:23;4.63;;;3.47;;
13443;SDS011;6794;59.218;18.218;2023-07-31T07:07:50;5.00;;;3.20;;
13443;SDS011;6794;59.218;18.218;2023-07-31T07:10:17;4.23;;;2.70;;
13443;SDS011;6794;59.218;18.218;2023-07-31T07:12:43;4.50;;;3.08;;
13443;SDS011;6794;59.218;18.218;2023-07-31T07:15:09;4.77;;;3.57;;
13443;SDS011;6794;59.218;18.218;2023-07-31T07:17:35;5.23;;;3.10;;
13443;SDS011;6794;59.218;18.218;2023-07-31T07:20:02;4.60;;;3.00;;
13443;SDS011;6794;59.218;18.218;2023-07-31T07:22:28;4.00;;;3.17;;
13443;SDS011;6794;59.218;18.218;2023-07-31T07:24:54;4.73;;;2.97;;
13443;SDS011;6794;59.218;18.218;2023-07-31T07:27:21;4.73;;;3.10;;
13443;SDS011;6794;59.218;18.218;2023-07-31T07:29:47;3.23;;;2.93;;
13443;SDS011;6794;59.218;18.218;2023-07-31T07:32:13;3.60;;;3.00;;
13443;SDS011;6794;59.218;18.218;2023-07-31T07:34:39;7.57;;;6.70;;
13443;SDS011;6794;59.218;18.218;2023-07-31T07:37:05;4.43;;;3.70;;
13443;SDS011;6794;59.218;18.218;2023-07-31T07:39:31;8.07;;;5.50;;
13443;SDS011;6794;59.218;18.218;2023-07-31T07:41:57;5.05;;;3.38;;
13443;SDS011;6794;59.218;18.218;2023-07-31T07:44:23;5.97;;;3.43;;
13443;SDS011;6794;59.218;18.218;2023-07-31T07:46:49;9.13;;;7.10;;
13443;SDS011;6794;59.218;18.218;2023-07-31T07:49:15;6.13;;;4.28;;
13443;SDS011;6794;59.218;18.218;2023-07-31T07:51:41;6.23;;;3.33;;
13443;SDS011;6794;59.218;18.218;2023-07-31T07:54:07;5.40;;;3.27;;
13443;SDS011;6794;59.218;18.218;2023-07-31T07:56:33;5.55;;;3.78;;
13443;SDS011;6794;59.218;18.218;2023-07-31T07:59:01;5.70;;;3.10;;
13443;SDS011;6794;59.218;18.218;2023-07-31T08:01:27;4.93;;;3.38;;
13443;SDS011;6794;59.218;18.218;2023-07-31T08:03:53;4.43;;;2.63;;
13443;SDS011;6794;59.218;18.218;2023-07-31T08:06:19;3.87;;;3.47;;
13443;SDS011;6794;59.218;18.218;2023-07-31T08:08:45;4.63;;;3.70;;
13443;SDS011;6794;59.218;18.218;2023-07-31T08:11:11;5.47;;;3.83;;
13443;SDS011;6794;59.218;18.218;2023-07-31T08:13:37;6.95;;;3.67;;
13443;SDS011;6794;59.218;18.218;2023-07-31T08:16:03;4.40;;;3.50;;
13443;SDS011;6794;59.218;18.218;2023-07-31T08:18:33;5.27;;;3.20;;
13443;SDS011;6794;59.218;18.218;2023-07-31T08:20:59;6.10;;;3.70;;
13443;SDS011;6794;59.218;18.218;2023-07-31T08:23:25;3.50;;;3.20;;
13443;SDS011;6794;59.218;18.218;2023-07-31T08:25:51;4.37;;;3.17;;
13443;SDS011;6794;59.218;18.218;2023-07-31T08:28:17;4.80;;;2.50;;
13443;SDS011;6794;59.218;18.218;2023-07-31T08:30:43;4.60;;;3.10;;
13443;SDS011;6794;59.218;18.218;2023-07-31T08:33:09;4.87;;;2.93;;
13443;SDS011;6794;59.218;18.218;2023-07-31T08:35:36;2.97;;;2.67;;
13443;SDS011;6794;59.218;18.218;2023-07-31T08:38:02;4.28;;;3.30;;
13443;SDS011;6794;59.218;18.218;2023-07-31T08:40:28;5.60;;;2.53;;
13443;SDS011;6794;59.218;18.218;2023-07-31T08:42:54;3.67;;;2.70;;
13443;SDS011;6794;59.218;18.218;2023-07-31T08:45:27;3.43;;;2.50;;
13443;SDS011;6794;59.218;18.218;2023-07-31T08:47:53;3.63;;;2.57;;
13443;SDS011;6794;59.218;18.218;2023-07-31T08:50:21;4.27;;;2.50;;
13443;SDS011;6794;59.218;18.218;2023-07-31T08:52:48;2.80;;;2.07;;
13443;SDS011;6794;59.218;18.218;2023-07-31T08:55:14;3.57;;;2.53;;
13443;SDS011;6794;59.218;18.218;2023-07-31T08:57:40;3.80;;;2.60;;
13443;SDS011;6794;59.218;18.218;2023-07-31T09:00:07;3.60;;;2.83;;
13443;SDS011;6794;59.218;18.218;2023-07-31T09:02:48;5.07;;;2.47;;
13443;SDS011;6794;59.218;18.218;2023-07-31T09:05:17;3.83;;;2.50;;
13443;SDS011;6794;59.218;18.218;2023-07-31T09:07:45;5.17;;;2.50;;
13443;SDS011;6794;59.218;18.218;2023-07-31T09:10:12;5.63;;;2.50;;
13443;SDS011;6794;59.218;18.218;2023-07-31T09:12:38;3.50;;;2.30;;
13443;SDS011;6794;59.218;18.218;2023-07-31T09:15:05;5.83;;;2.47;;
13443;SDS011;6794;59.218;18.218;2023-07-31T09:17:31;6.33;;;2.40;;
13443;SDS011;6794;59.218;18.218;2023-07-31T09:19:57;4.20;;;2.47;;
13443;SDS011;6794;59.218;18.218;2023-07-31T09:22:33;17.23;;;10.80;;
13443;SDS011;6794;59.218;18.218;2023-07-31T09:30:14;5.90;;;2.73;;
13443;SDS011;6794;59.218;18.218;2023-07-31T09:32:40;7.77;;;7.07;;
13443;SDS011;6794;59.218;18.218;2023-07-31T09:37:47;3.70;;;2.40;;
13443;SDS011;6794;59.218;18.218;2023-07-31T09:40:24;4.93;;;2.85;;
13443;SDS011;6794;59.218;18.218;2023-07-31T09:42:51;4.53;;;2.50;;
13443;SDS011;6794;59.218;18.218;2023-07-31T09:45:17;2.87;;;2.50;;
13443;SDS011;6794;59.218;18.218;2023-07-31T09:47:47;4.57;;;2.67;;
13443;SDS011;6794;59.218;18.218;2023-07-31T09:50:13;3.90;;;2.70;;
13443;SDS011;6794;59.218;18.218;2023-07-31T09:52:41;3.63;;;2.13;;
13443;SDS011;6794;59.218;18.218;2023-07-31T09:55:07;4.07;;;2.20;;
13443;SDS011;6794;59.218;18.218;2023-07-31T09:57:33;3.63;;;2.00;;
13443;SDS011;6794;59.218;18.218;2023-07-31T09:59:59;4.80;;;1.60;;
13443;SDS011;6794;59.218;18.218;2023-07-31T10:02:26;2.63;;;2.10;;
13443;SDS011;6794;59.218;18.218;2023-07-31T10:04:53;3.73;;;2.23;;
13443;SDS011;6794;59.218;18.218;2023-07-31T10:07:26;3.73;;;1.90;;
13443;SDS011;6794;59.218;18.218;2023-07-31T10:09:54;2.63;;;1.60;;
13443;SDS011;6794;59.218;18.218;2023-07-31T10:12:20;2.77;;;1.77;;
13443;SDS011;6794;59.218;18.218;2023-07-31T10:14:48;2.00;;;1.80;;
13443;SDS011;6794;59.218;18.218;2023-07-31T10:17:14;1.93;;;1.70;;
13443;SDS011;6794;59.218;18.218;2023-07-31T10:19:41;2.70;;;2.20;;
13443;SDS011;6794;59.218;18.218;2023-07-31T10:22:07;1.90;;;1.80;;
13443;SDS011;6794;59.218;18.218;2023-07-31T10:24:33;3.00;;;2.70;;
13443;SDS011;6794;59.218;18.218;2023-07-31T10:27:00;3.40;;;2.63;;
13443;SDS011;6794;59.218;18.218;2023-07-31T10:29:28;2.83;;;1.80;;
13443;SDS011;6794;59.218;18.218;2023-07-31T10:31:55;3.90;;;2.03;;
13443;SDS011;6794;59.218;18.218;2023-07-31T10:34:22;1.90;;;1.33;;
13443;SDS011;6794;59.218;18.218;2023-07-31T10:36:48;4.00;;;2.13;;
13443;SDS011;6794;59.218;18.218;2023-07-31T10:41:59;4.40;;;2.27;;
13443;SDS011;6794;59.218;18.218;2023-07-31T10:44:24;2.40;;;1.60;;
13443;SDS011;6794;59.218;18.218;2023-07-31T10:46:54;1.90;;;1.70;;
13443;SDS011;6794;59.218;18.218;2023-07-31T10:49:20;1.93;;;1.73;;
13443;SDS011;6794;59.218;18.218;2023-07-31T10:51:47;3.10;;;1.93;;
13443;SDS011;6794;59.218;18.218;2023-07-31T10:54:13;2.30;;;1.63;;
13443;SDS011;6794;59.218;18.218;2023-07-31T10:56:44;1.93;;;1.70;;
13443;SDS011;6794;59.218;18.218;2023-07-31T10:59:11;4.07;;;2.23;;
13443;SDS011;6794;59.218;18.218;2023-07-31T11:01:50;2.60;;;1.83;;
13443;SDS011;6794;59.218;18.218;2023-07-31T11:04:21;3.17;;;2.00;;
13443;SDS011;6794;59.218;18.218;2023-07-31T11:07:06;3.25;;;2.10;;
13443;SDS011;6794;59.218;18.218;2023-07-31T11:09:35;1.77;;;1.50;;
13443;SDS011;6794;59.218;18.218;2023-07-31T11:12:01;3.10;;;2.00;;
13443;SDS011;6794;59.218;18.218;2023-07-31T11:14:28;3.00;;;1.77;;
13443;SDS011;6794;59.218;18.218;2023-07-31T11:16:54;2.40;;;1.83;;
13443;SDS011;6794;59.218;18.218;2023-07-31T11:19:25;2.00;;;1.80;;
13443;SDS011;6794;59.218;18.218;2023-07-31T11:21:52;3.03;;;1.90;;
13443;SDS011;6794;59.218;18.218;2023-07-31T11:24:18;4.37;;;2.10;;
13443;SDS011;6794;59.218;18.218;2023-07-31T11:26:53;2.63;;;1.80;;
13443;SDS011;6794;59.218;18.218;2023-07-31T11:29:19;3.27;;;1.90;;
13443;SDS011;6794;59.218;18.218;2023-07-31T11:31:46;2.90;;;1.80;;
13443;SDS011;6794;59.218;18.218;2023-07-31T11:34:13;4.17;;;2.20;;
13443;SDS011;6794;59.218;18.218;2023-07-31T11:36:40;2.97;;;1.97;;
13443;SDS011;6794;59.218;18.218;2023-07-31T11:39:07;3.67;;;1.60;;
13443;SDS011;6794;59.218;18.218;2023-07-31T11:41:33;2.10;;;1.90;;
13443;SDS011;6794;59.218;18.218;2023-07-31T11:43:59;1.87;;;1.73;;
13443;SDS011;6794;59.218;18.218;2023-07-31T11:46:26;2.77;;;2.00;;
13443;SDS011;6794;59.218;18.218;2023-07-31T11:48:52;3.13;;;1.90;;
13443;SDS011;6794;59.218;18.218;2023-07-31T11:51:24;2.60;;;1.87;;
13443;SDS011;6794;59.218;18.218;2023-07-31T11:53:51;2.07;;;1.80;;
13443;SDS011;6794;59.218;18.218;2023-07-31T11:56:20;1.67;;;1.57;;
13443;SDS011;6794;59.218;18.218;2023-07-31T11:58:47;2.63;;;1.60;;
13443;SDS011;6794;59.218;18.218;2023-07-31T12:01:15;2.27;;;1.50;;
13443;SDS011;6794;59.218;18.218;2023-07-31T12:03:41;2.03;;;1.70;;
13443;SDS011;6794;59.218;18.218;2023-07-31T12:06:08;2.10;;;1.87;;
13443;SDS011;6794;59.218;18.218;2023-07-31T12:08:34;2.93;;;1.70;;
13443;SDS011;6794;59.218;18.218;2023-07-31T12:11:03;1.70;;;1.60;;
13443;SDS011;6794;59.218;18.218;2023-07-31T12:13:30;2.30;;;1.90;;
13443;SDS011;6794;59.218;18.218;2023-07-31T12:15:57;2.53;;;2.00;;
13443;SDS011;6794;59.218;18.218;2023-07-31T12:18:24;3.53;;;1.80;;
13443;SDS011;6794;59.218;18.218;2023-07-31T12:20:57;2.40;;;1.93;;
13443;SDS011;6794;59.218;18.218;2023-07-31T12:23:27;3.20;;;1.90;;
13443;SDS011;6794;59.218;18.218;2023-07-31T12:26:07;3.57;;;1.80;;
13443;SDS011;6794;59.218;18.218;2023-07-31T12:28:36;2.67;;;2.00;;
13443;SDS011;6794;59.218;18.218;2023-07-31T12:31:03;3.00;;;1.80;;
13443;SDS011;6794;59.218;18.218;2023-07-31T12:33:36;2.73;;;1.90;;
13443;SDS011;6794;59.218;18.218;2023-07-31T12:36:03;3.67;;;1.90;;
13443;SDS011;6794;59.218;18.218;2023-07-31T12:38:30;3.93;;;2.07;;
13443;SDS011;6794;59.218;18.218;2023-07-31T12:40:56;2.53;;;1.80;;
13443;SDS011;6794;59.218;18.218;2023-07-31T12:43:22;3.00;;;2.13;;
13443;SDS011;6794;59.218;18.218;2023-07-31T12:45:48;4.00;;;1.80;;
13443;SDS011;6794;59.218;18.218;2023-07-31T12:48:14;2.70;;;1.90;;
13443;SDS011;6794;59.218;18.218;2023-07-31T12:50:40;3.40;;;2.20;;
13443;SDS011;6794;59.218;18.218;2023-07-31T12:53:06;1.87;;;1.63;;
13443;SDS011;6794;59.218;18.218;2023-07-31T12:55:33;2.23;;;1.83;;
13443;SDS011;6794;59.218;18.218;2023-07-31T12:58:02;3.37;;;2.20;;
13443;SDS011;6794;59.218;18.218;2023-07-31T13:00:28;2.47;;;1.80;;
13443;SDS011;6794;59.218;18.218;2023-07-31T13:02:54;4.27;;;2.30;;
13443;SDS011;6794;59.218;18.218;2023-07-31T13:05:20;3.20;;;2.10;;
13443;SDS011;6794;59.218;18.218;2023-07-31T13:07:47;2.87;;;2.13;;
13443;SDS011;6794;59.218;18.218;2023-07-31T13:10:13;3.80;;;2.00;;
13443;SDS011;6794;59.218;18.218;2023-07-31T13:12:39;3.10;;;1.90;;
13443;SDS011;6794;59.218;18.218;2023-07-31T13:15:05;2.90;;;1.87;;
13443;SDS011;6794;59.218;18.218;2023-07-31T13:17:32;3.30;;;2.07;;
13443;SDS011;6794;59.218;18.218;2023-07-31T13:19:58;3.37;;;2.00;;
13443;SDS011;6794;59.218;18.218;2023-07-31T13:22:24;2.30;;;2.10;;
13443;SDS011;6794;59.218;18.218;2023-07-31T13:24:50;2.37;;;1.93;;
13443;SDS011;6794;59.218;18.218;2023-07-31T13:27:16;3.67;;;1.80;;
13443;SDS011;6794;59.218;18.218;2023-07-31T13:29:44;3.10;;;1.93;;
13443;SDS011;6794;59.218;18.218;2023-07-31T13:32:10;2.70;;;1.93;;
13443;SDS011;6794;59.218;18.218;2023-07-31T13:34:36;4.27;;;2.00;;
13443;SDS011;6794;59.218;18.218;2023-07-31T13:37:02;4.80;;;2.00;;
13443;SDS011;6794;59.218;18.218;2023-07-31T13:39:28;2.43;;;1.90;;
13443;SDS011;6794;59.218;18.218;2023-07-31T13:41:54;3.33;;;1.87;;
13443;SDS011;6794;59.218;18.218;2023-07-31T13:44:20;3.67;;;2.10;;
13443;SDS011;6794;59.218;18.218;2023-07-31T13:46:46;3.57;;;1.90;;
13443;SDS011;6794;59.218;18.218;2023-07-31T13:49:12;3.73;;;2.13;;
13443;SDS011;6794;59.218;18.218;2023-07-31T13:51:38;2.83;;;1.87;;
13443;SDS011;6794;59.218;18.218;2023-07-31T13:54:04;3.30;;;1.87;;
13443;SDS011;6794;59.218;18.218;2023-07-31T13:56:31;2.83;;;2.00;;
13443;SDS011;6794;59.218;18.218;2023-07-31T13:58:57;3.57;;;1.97;;
13443;SDS011;6794;59.218;18.218;2023-07-31T14:01:25;4.80;;;1.80;;
13443;SDS011;6794;59.218;18.218;2023-07-31T14:03:51;2.40;;;1.90;;
13443;SDS011;6794;59.218;18.218;2023-07-31T14:06:18;2.00;;;1.90;;
13443;SDS011;6794;59.218;18.218;2023-07-31T14:08:44;2.63;;;1.80;;
13443;SDS011;6794;59.218;18.218;2023-07-31T14:11:10;3.07;;;1.63;;
13443;SDS011;6794;59.218;18.218;2023-07-31T14:13:36;1.93;;;1.70;;
13443;SDS011;6794;59.218;18.218;2023-07-31T14:16:02;3.57;;;2.10;;
13443;SDS011;6794;59.218;18.218;2023-07-31T14:18:28;3.60;;;2.07;;
13443;SDS011;6794;59.218;18.218;2023-07-31T14:20:54;4.23;;;1.97;;
13443;SDS011;6794;59.218;18.218;2023-07-31T14:23:20;4.68;;;2.28;;
13443;SDS011;6794;59.218;18.218;2023-07-31T14:25:46;2.33;;;2.00;;
13443;SDS011;6794;59.218;18.218;2023-07-31T14:28:13;5.50;;;2.33;;
13443;SDS011;6794;59.218;18.218;2023-07-31T14:30:39;4.20;;;2.20;;
13443;SDS011;6794;59.218;18.218;2023-07-31T14:33:05;3.47;;;2.20;;
13443;SDS011;6794;59.218;18.218;2023-07-31T14:35:31;2.77;;;2.10;;
13443;SDS011;6794;59.218;18.218;2023-07-31T14:37:57;3.20;;;2.03;;
13443;SDS011;6794;59.218;18.218;2023-07-31T14:40:23;4.07;;;2.33;;
13443;SDS011;6794;59.218;18.218;2023-07-31T14:42:49;4.43;;;2.50;;
13443;SDS011;6794;59.218;18.218;2023-07-31T14:45:15;4.00;;;2.20;;
13443;SDS011;6794;59.218;18.218;2023-07-31T14:47:41;3.40;;;2.40;;
13443;SDS011;6794;59.218;18.218;2023-07-31T14:50:07;3.27;;;2.30;;
13443;SDS011;6794;59.218;18.218;2023-07-31T14:52:34;3.33;;;2.03;;
13443;SDS011;6794;59.218;18.218;2023-07-31T14:55:00;3.60;;;2.37;;
13443;SDS011;6794;59.218;18.218;2023-07-31T14:57:26;4.30;;;2.50;;
13443;SDS011;6794;59.218;18.218;2023-07-31T14:59:52;4.30;;;2.50;;